Time;durP1;ratioP1;P1;durP2;ratioP2;P2;SDS_P1;SDS_P2;PMS_P1;PMS_P2;Temp;Humidity;BMP_temperature;BMP_pressure;BME280_temperature;BME280_humidity;BME280_pressure;Samples;Min_cycle;Max_cycle;Signal;HPM_P1;HPM_P2
2022/04/03 00:00:11;;;;;;;1999.90;999.90;;;3.60;99.90;;;;;;5035096;28;20171;-68
2022/04/03 00:02:36;;;;;;;1999.90;999.90;;;3.50;99.90;;;;;;5033723;28;20415;-69
2022/04/03 00:05:03;;;;;;;1999.90;999.90;;;3.50;99.90;;;;;;5034654;28;20290;-68
2022/04/03 00:07:29;;;;;;;1999.90;999.90;;;3.50;99.90;;;;;;5034831;28;20179;-69
2022/04/03 00:09:54;;;;;;;1999.90;999.90;;;3.50;99.90;;;;;;5034735;28;20176;-68
2022/04/03 00:12:20;;;;;;;1999.90;999.90;;;3.40;99.90;;;;;;5035046;28;20203;-69
2022/04/03 00:14:45;;;;;;;1999.90;999.90;;;3.50;99.90;;;;;;5033955;28;20188;-69
2022/04/03 00:17:11;;;;;;;1999.90;999.90;;;3.40;99.90;;;;;;5034741;28;20211;-69
2022/04/03 00:19:36;;;;;;;1999.90;999.90;;;3.30;99.90;;;;;;5034765;28;20692;-68
2022/04/03 00:22:03;;;;;;;1999.90;999.90;;;3.30;99.90;;;;;;5034600;28;20172;-69
2022/04/03 00:24:29;;;;;;;1999.90;999.90;;;3.20;99.90;;;;;;5033513;28;20287;-69
2022/04/03 00:26:54;;;;;;;1999.90;999.90;;;3.20;99.90;;;;;;5034577;28;20311;-68
2022/04/03 00:29:20;;;;;;;1999.90;999.90;;;3.10;99.90;;;;;;5034477;28;20244;-69
2022/04/03 00:31:46;;;;;;;1999.90;999.90;;;3.10;99.90;;;;;;5034497;28;20618;-69
2022/04/03 00:34:11;;;;;;;1999.90;999.90;;;3.10;99.90;;;;;;5033590;28;20191;-69
2022/04/03 00:36:37;;;;;;;1999.90;999.90;;;3.10;99.90;;;;;;5034387;28;20614;-68
2022/04/03 00:39:03;;;;;;;1999.90;999.90;;;3.10;99.90;;;;;;5034133;28;20168;-69
2022/04/03 00:41:28;;;;;;;1999.90;999.90;;;3.00;99.90;;;;;;5034298;28;20182;-69
2022/04/03 00:43:55;;;;;;;1999.90;999.90;;;3.00;99.90;;;;;;5034032;28;20208;-69
2022/04/03 00:46:23;;;;;;;1999.90;999.90;;;3.00;99.90;;;;;;5033600;28;20172;-68
2022/04/03 00:48:52;;;;;;;1999.90;999.90;;;2.90;99.90;;;;;;5034179;28;20588;-68
2022/04/03 00:51:18;;;;;;;1999.90;999.90;;;2.90;99.90;;;;;;5034017;28;20171;-69
2022/04/03 00:53:43;;;;;;;1999.90;999.90;;;2.90;99.90;;;;;;5033677;28;20211;-68
2022/04/03 00:56:10;;;;;;;1999.90;999.90;;;2.90;99.90;;;;;;5033481;28;20982;-68
2022/04/03 00:58:38;;;;;;;1999.90;999.90;;;2.80;99.90;;;;;;5033868;28;20399;-69
2022/04/03 01:01:04;;;;;;;1999.90;999.90;;;2.80;99.90;;;;;;5034605;28;20206;-68
2022/04/03 01:03:30;;;;;;;1999.90;999.90;;;2.80;99.90;;;;;;5035046;28;20595;-69
2022/04/03 01:05:56;;;;;;;1999.90;999.90;;;2.80;99.90;;;;;;5035026;28;20175;-70
2022/04/03 01:08:24;;;;;;;1999.90;999.90;;;2.80;99.90;;;;;;5034931;28;20168;-69
2022/04/03 01:10:50;;;;;;;1999.90;999.90;;;2.80;99.90;;;;;;5034517;28;20180;-70
2022/04/03 01:13:16;;;;;;;1999.90;999.90;;;2.90;99.90;;;;;;5035015;28;20193;-70
2022/04/03 01:15:42;;;;;;;1999.90;999.90;;;2.80;99.90;;;;;;5034033;28;20700;-70
2022/04/03 01:18:08;;;;;;;1999.90;999.90;;;2.80;99.90;;;;;;5034591;28;20411;-70
2022/04/03 01:20:35;;;;;;;1999.90;999.90;;;2.80;99.90;;;;;;5035129;28;20211;-70
2022/04/03 01:23:00;;;;;;;1999.90;999.90;;;2.70;99.90;;;;;;5034482;28;20813;-69
2022/04/03 01:25:26;;;;;;;1999.90;999.90;;;2.60;99.90;;;;;;5033927;28;20351;-68
2022/04/03 01:27:52;;;;;;;1999.90;999.90;;;2.50;99.90;;;;;;5034897;28;20180;-69
2022/04/03 01:30:17;;;;;;;1999.90;999.90;;;2.50;99.90;;;;;;5034432;28;20172;-70
2022/04/03 01:32:43;;;;;;;1999.90;999.90;;;2.40;99.90;;;;;;5034723;28;20196;-69
2022/04/03 01:35:09;;;;;;;1999.90;999.90;;;2.40;99.90;;;;;;5034561;28;20634;-69
2022/04/03 01:37:35;;;;;;;1999.90;999.90;;;2.30;99.90;;;;;;5034538;28;20168;-69
2022/04/03 01:40:02;;;;;;;1999.90;999.90;;;2.30;99.90;;;;;;5034006;28;20176;-69
2022/04/03 01:42:28;;;;;;;1999.90;999.90;;;2.30;99.90;;;;;;5033716;28;20173;-69
2022/04/03 01:44:54;;;;;;;1999.90;999.90;;;2.20;99.90;;;;;;5033536;28;20282;-69
2022/04/03 01:47:20;;;;;;;1999.90;999.90;;;2.30;99.90;;;;;;5033860;28;20207;-69
2022/04/03 01:49:45;;;;;;;1999.90;999.90;;;2.30;99.90;;;;;;5033999;28;20165;-70
2022/04/03 01:52:12;;;;;;;1999.90;999.90;;;2.30;99.90;;;;;;5034145;28;20444;-69
2022/04/03 01:54:38;;;;;;;1999.90;999.90;;;2.20;99.90;;;;;;5033539;28;20211;-70
2022/04/03 01:57:04;;;;;;;1999.90;999.90;;;2.10;99.90;;;;;;5033626;28;20176;-69
2022/04/03 01:59:29;;;;;;;1999.90;999.90;;;2.00;99.90;;;;;;5032766;28;20172;-70
2022/04/03 02:01:55;;;;;;;1999.90;999.90;;;1.90;99.90;;;;;;5033344;28;20757;-69
2022/04/03 02:04:20;;;;;;;1999.90;999.90;;;1.90;99.90;;;;;;5033274;28;20204;-69
2022/04/03 02:06:46;;;;;;;1999.90;999.90;;;1.90;99.90;;;;;;5033265;28;20160;-69
2022/04/03 02:09:11;;;;;;;1999.90;999.90;;;1.80;99.90;;;;;;5033161;28;20625;-69
2022/04/03 02:11:38;;;;;;;1999.90;999.90;;;1.80;99.90;;;;;;5033237;28;20247;-68
2022/04/03 02:14:05;;;;;;;1999.90;999.90;;;1.80;99.90;;;;;;5032561;28;20196;-69
2022/04/03 02:16:30;;;;;;;1999.90;999.90;;;1.90;99.90;;;;;;5032910;28;20605;-69
2022/04/03 02:18:56;;;;;;;1999.90;999.90;;;1.90;99.90;;;;;;5033256;28;20172;-70
2022/04/03 02:21:21;;;;;;;1999.90;999.90;;;1.90;99.90;;;;;;5032931;28;20217;-70
2022/04/03 02:23:47;;;;;;;1999.90;999.90;;;1.90;99.90;;;;;;5033321;28;20211;-70
2022/04/03 02:26:13;;;;;;;1999.90;999.90;;;1.90;99.90;;;;;;5033255;28;20796;-70
2022/04/03 02:28:39;;;;;;;1999.90;999.90;;;2.00;99.90;;;;;;5033419;28;20184;-70
2022/04/03 02:31:04;;;;;;;1999.90;999.90;;;2.10;99.90;;;;;;5033430;28;20196;-69
2022/04/03 02:33:30;;;;;;;1999.90;999.90;;;2.10;99.90;;;;;;5033129;28;20261;-70
2022/04/03 02:35:56;;;;;;;1999.90;999.90;;;2.10;99.90;;;;;;5033059;28;20684;-68
2022/04/03 02:38:21;;;;;;;1999.90;999.90;;;2.10;99.90;;;;;;5033236;28;20187;-70
2022/04/03 02:40:47;;;;;;;1999.90;999.90;;;2.00;99.90;;;;;;5033435;28;20553;-70
2022/04/03 02:43:13;;;;;;;1999.90;999.90;;;2.00;99.90;;;;;;5033114;28;20200;-69
2022/04/03 02:45:39;;;;;;;1999.90;999.90;;;2.10;99.90;;;;;;5032554;28;20857;-69
2022/04/03 02:48:06;;;;;;;1999.90;999.90;;;2.10;99.90;;;;;;5032956;28;20173;-69
2022/04/03 02:50:32;;;;;;;1999.90;999.90;;;2.00;99.90;;;;;;5032650;28;20642;-70
2022/04/03 02:52:58;;;;;;;1999.90;999.90;;;2.00;99.90;;;;;;5032888;28;20275;-70
2022/04/03 02:55:25;;;;;;;1999.90;999.90;;;2.00;99.90;;;;;;5032128;28;20239;-70
2022/04/03 02:57:52;;;;;;;1999.90;999.90;;;2.00;99.90;;;;;;5032623;28;20176;-69
2022/04/03 03:00:18;;;;;;;1999.90;999.90;;;1.90;99.90;;;;;;5032842;28;20634;-69
2022/04/03 03:02:47;;;;;;;1999.90;999.90;;;1.90;99.90;;;;;;5032448;28;20222;-69
2022/04/03 03:05:14;;;;;;;1999.90;999.90;;;1.90;99.90;;;;;;5031964;28;20438;-69
2022/04/03 03:07:41;;;;;;;1999.90;999.90;;;1.90;99.90;;;;;;5032494;28;20179;-70
2022/04/03 03:10:09;;;;;;;1999.90;999.90;;;1.80;99.90;;;;;;5032677;28;20172;-68
2022/04/03 03:12:34;;;;;;;1999.90;999.90;;;1.80;99.90;;;;;;5036026;28;20172;-69
2022/04/03 03:15:00;;;;;;;1999.90;999.90;;;1.80;99.90;;;;;;5035924;28;20553;-70
2022/04/03 03:17:26;;;;;;;1999.90;999.90;;;1.70;99.90;;;;;;5036340;28;20410;-69
2022/04/03 03:19:52;;;;;;;1999.90;999.90;;;1.70;99.90;;;;;;5036307;28;20427;-69
2022/04/03 03:22:19;;;;;;;1999.90;999.90;;;1.70;99.90;;;;;;5036295;28;20168;-69
2022/04/03 03:24:45;;;;;;;1999.90;999.90;;;1.60;99.90;;;;;;5035495;28;20202;-70
2022/04/03 03:27:10;;;;;;;1999.90;999.90;;;1.60;99.90;;;;;;5036159;28;20180;-69
2022/04/03 03:29:36;;;;;;;1999.90;999.90;;;1.60;99.90;;;;;;5036182;28;20626;-69
2022/04/03 03:32:02;;;;;;;1999.90;999.90;;;1.60;99.90;;;;;;5035915;28;20172;-70
2022/04/03 03:34:28;;;;;;;1999.90;999.90;;;1.60;99.90;;;;;;5035224;28;20462;-69
2022/04/03 03:36:53;;;;;;;1999.90;999.90;;;1.60;99.90;;;;;;5035930;28;20175;-69
2022/04/03 03:39:19;;;;;;;1999.90;999.90;;;1.60;99.90;;;;;;5035887;28;20179;-69
2022/04/03 03:41:44;;;;;;;1999.90;999.90;;;1.50;99.90;;;;;;5036070;28;20218;-70
2022/04/03 03:44:10;;;;;;;1999.90;999.90;;;1.50;99.90;;;;;;5035348;28;20696;-70
2022/04/03 03:46:37;;;;;;;1999.90;999.90;;;1.40;99.90;;;;;;5035889;28;20172;-69
2022/04/03 03:49:03;;;;;;;1999.90;999.90;;;1.40;99.90;;;;;;5036047;28;20164;-69
2022/04/03 03:51:29;;;;;;;1999.90;999.90;;;1.40;99.90;;;;;;5036058;28;20259;-69
2022/04/03 03:53:54;;;;;;;1999.90;999.90;;;1.40;99.90;;;;;;5035504;28;20753;-70
2022/04/03 03:56:20;;;;;;;1999.90;999.90;;;1.40;99.90;;;;;;5033622;23;20701;-71
2022/04/03 03:58:46;;;;;;;1999.90;999.90;;;1.30;99.90;;;;;;5015364;28;20176;-70
2022/04/03 04:01:12;;;;;;;1999.90;999.90;;;1.30;99.90;;;;;;5015234;28;20230;-72
2022/04/03 04:03:38;;;;;;;1999.90;999.90;;;1.20;99.90;;;;;;5015077;28;20193;-71
2022/04/03 04:06:04;;;;;;;1999.90;999.90;;;1.20;99.90;;;;;;5014768;28;20189;-71
2022/04/03 04:08:29;;;;;;;1999.90;999.90;;;1.20;99.90;;;;;;5015114;28;20201;-71
2022/04/03 04:10:57;;;;;;;1999.90;999.90;;;1.10;99.90;;;;;;5015064;28;20215;-71
2022/04/03 04:13:22;;;;;;;1999.90;999.90;;;1.10;99.90;;;;;;5015066;28;20639;-71
2022/04/03 04:15:48;;;;;;;1999.90;999.90;;;1.10;99.90;;;;;;5014579;28;20255;-71
2022/04/03 04:18:13;;;;;;;1999.90;999.90;;;1.00;99.90;;;;;;5014897;28;20177;-71
2022/04/03 04:20:39;;;;;;;1999.90;999.90;;;1.00;99.90;;;;;;5014937;28;20169;-71
2022/04/03 04:23:05;;;;;;;1999.90;999.90;;;1.00;99.90;;;;;;5014318;28;20658;-70
2022/04/03 04:25:31;;;;;;;1999.90;999.90;;;1.00;99.90;;;;;;5014450;28;20689;-70
2022/04/03 04:27:58;;;;;;;1999.90;999.90;;;1.10;99.90;;;;;;5014777;28;20451;-71
2022/04/03 04:30:24;;;;;;;1999.90;999.90;;;1.20;99.90;;;;;;5014697;28;20256;-71
2022/04/03 04:32:50;;;;;;;1999.90;999.90;;;1.20;99.90;;;;;;5014627;28;20206;-71
2022/04/03 04:35:15;;;;;;;1999.90;999.90;;;1.20;99.90;;;;;;5014268;28;20212;-71
2022/04/03 04:37:42;;;;;;;1999.90;999.90;;;1.30;99.90;;;;;;5014553;28;20176;-70
2022/04/03 04:40:09;;;;;;;1999.90;999.90;;;1.30;99.90;;;;;;5014522;28;20162;-71
2022/04/03 04:42:35;;;;;;;1999.90;999.90;;;1.20;99.90;;;;;;5014438;28;20300;-71
2022/04/03 04:45:01;;;;;;;1999.90;999.90;;;1.10;99.90;;;;;;5014030;28;20640;-71
2022/04/03 04:47:26;;;;;;;1999.90;999.90;;;1.00;99.90;;;;;;5014398;28;20941;-71
2022/04/03 04:49:52;;;;;;;1999.90;999.90;;;1.00;99.90;;;;;;5014344;28;20192;-71
2022/04/03 04:52:18;;;;;;;1999.90;999.90;;;1.00;99.90;;;;;;5014290;28;20166;-71
2022/04/03 04:54:43;;;;;;;1999.90;999.90;;;1.00;99.90;;;;;;5013811;28;20236;-71
2022/04/03 04:57:09;;;;;;;1999.90;999.90;;;0.80;99.90;;;;;;5014235;28;20181;-71
2022/04/03 04:59:35;;;;;;;1999.90;999.90;;;0.50;99.90;;;;;;5014096;28;20559;-71
2022/04/03 05:02:01;;;;;;;1999.90;999.90;;;0.50;99.90;;;;;;5014130;28;20177;-71
2022/04/03 05:04:27;;;;;;;1999.90;999.90;;;0.40;99.90;;;;;;5013704;28;20551;-71
2022/04/03 05:06:53;;;;;;;1999.90;999.90;;;0.40;99.90;;;;;;5014060;28;20541;-71
2022/04/03 05:09:20;;;;;;;1999.90;999.90;;;0.30;99.90;;;;;;5013956;28;20400;-71
2022/04/03 05:11:46;;;;;;;1999.90;999.90;;;0.20;99.90;;;;;;5013937;28;20200;-70
2022/04/03 05:14:13;;;;;;;1999.90;999.90;;;0.20;99.90;;;;;;5013519;28;20165;-71
2022/04/03 05:16:39;;;;;;;1999.90;999.90;;;0.20;99.90;;;;;;5013720;28;20243;-71
2022/04/03 05:19:05;;;;;;;1999.90;999.90;;;0.10;99.90;;;;;;5013767;28;20169;-71
2022/04/03 05:21:31;;;;;;;1999.90;999.90;;;0.10;99.90;;;;;;5013769;28;20173;-71
2022/04/03 05:23:56;;;;;;;1999.90;999.90;;;0.20;99.90;;;;;;5013502;28;20285;-71
2022/04/03 05:26:22;;;;;;;1999.90;999.90;;;0.20;99.90;;;;;;5013365;28;20180;-71
2022/04/03 05:28:48;;;;;;;1999.90;999.90;;;0.20;99.90;;;;;;5013591;28;20189;-71
2022/04/03 05:31:13;;;;;;;1999.90;999.90;;;0.30;99.90;;;;;;5013706;28;20557;-72
2022/04/03 05:33:39;;;;;;;1999.90;999.90;;;0.40;99.90;;;;;;5012819;28;20170;-72
2022/04/03 05:36:05;;;;;;;1999.90;999.90;;;0.40;99.90;;;;;;5013116;28;20271;-71
2022/04/03 05:38:31;;;;;;;1999.90;999.90;;;0.40;99.90;;;;;;5013411;28;20572;-72
2022/04/03 05:40:57;;;;;;;1999.90;999.90;;;0.40;99.90;;;;;;5013342;28;20643;-71
2022/04/03 05:43:23;;;;;;;1999.90;999.90;;;0.40;99.90;;;;;;5013289;28;20246;-70
2022/04/03 05:45:48;;;;;;;1999.90;999.90;;;0.30;99.90;;;;;;5013065;28;20260;-71
2022/04/03 05:48:14;;;;;;;1999.90;999.90;;;0.20;99.90;;;;;;5013395;28;20161;-71
2022/04/03 05:50:40;;;;;;;1999.90;999.90;;;0.20;99.90;;;;;;5013188;28;20165;-71
2022/04/03 05:53:06;;;;;;;1999.90;999.90;;;0.20;99.90;;;;;;5013204;28;20171;-71
2022/04/03 05:55:32;;;;;;;1999.90;999.90;;;0.20;99.90;;;;;;5012708;28;20231;-71
2022/04/03 05:57:57;;;;;;;1999.90;999.90;;;0.40;99.90;;;;;;5013029;28;20654;-71
2022/04/03 06:00:24;;;;;;;1999.90;999.90;;;0.40;99.90;;;;;;5013071;28;20169;-71
2022/04/03 06:02:55;;;;;;;1999.90;999.90;;;0.50;99.90;;;;;;5012979;28;20207;-71
2022/04/03 06:05:24;;;;;;;1999.90;999.90;;;0.60;99.90;;;;;;5012602;28;20285;-71
2022/04/03 06:07:50;;;;;;;1999.90;999.90;;;0.60;99.90;;;;;;5012973;28;20216;-71
2022/04/03 06:10:16;;;;;;;1999.90;999.90;;;0.70;99.90;;;;;;5012886;28;20177;-71
2022/04/03 06:13:01;;;;;;;1999.90;999.90;;;0.70;99.90;;;;;;5012882;28;20161;-71
2022/04/03 06:15:33;;;;;;;1999.90;999.90;;;0.70;99.90;;;;;;5012416;28;20231;-71
2022/04/03 06:17:59;;;;;;;1999.90;999.90;;;0.70;99.90;;;;;;5012868;28;20268;-71
2022/04/03 06:20:25;;;;;;;1999.90;999.90;;;0.70;99.90;;;;;;5012782;28;20173;-70
2022/04/03 06:22:51;;;;;;;1999.90;999.90;;;0.70;99.90;;;;;;5012549;28;20165;-70
2022/04/03 06:25:19;;;;;;;1999.90;999.90;;;0.60;99.90;;;;;;5012517;28;20443;-71
2022/04/03 06:27:44;;;;;;;1999.90;999.90;;;0.60;99.90;;;;;;5012592;28;20681;-71
2022/04/03 06:30:10;;;;;;;1999.90;999.90;;;0.60;99.90;;;;;;5012450;28;20208;-71
2022/04/03 06:32:36;;;;;;;1999.90;999.90;;;0.70;99.90;;;;;;5012506;28;20165;-70
2022/04/03 06:35:01;;;;;;;1999.90;999.90;;;0.70;99.90;;;;;;5012180;28;20443;-70
2022/04/03 06:37:27;;;;;;;1999.90;999.90;;;0.70;99.90;;;;;;5012373;28;20196;-71
2022/04/03 06:39:53;;;;;;;1999.90;999.90;;;0.70;99.90;;;;;;5012466;28;20259;-71
2022/04/03 06:42:18;;;;;;;1999.90;999.90;;;0.80;99.90;;;;;;5012401;28;20169;-71
2022/04/03 06:44:44;;;;;;;1999.90;999.90;;;0.90;99.90;;;;;;5011804;28;20671;-71
2022/04/03 06:47:10;;;;;;;1999.90;999.90;;;1.00;99.90;;;;;;5012368;28;20210;-71
2022/04/03 06:49:36;;;;;;;1999.90;999.90;;;1.10;99.90;;;;;;5012294;28;20248;-70
2022/04/03 06:52:02;;;;;;;1999.90;999.90;;;1.20;99.90;;;;;;5012281;28;20772;-71
2022/04/03 06:54:28;;;;;;;1999.90;999.90;;;1.30;99.90;;;;;;5010513;28;20419;-71
2022/04/03 06:56:53;;;;;;;1999.90;999.90;;;1.20;99.90;;;;;;5012310;28;20741;-71
2022/04/03 06:59:20;;;;;;;1999.90;999.90;;;1.10;99.90;;;;;;5012116;28;20180;-71
2022/04/03 07:01:46;;;;;;;1999.90;999.90;;;1.10;99.90;;;;;;5012244;28;20491;-71
2022/04/03 07:04:11;;;;;;;1999.90;999.90;;;1.10;99.90;;;;;;5011820;28;20243;-71
2022/04/03 07:06:37;;;;;;;1999.90;999.90;;;1.20;99.90;;;;;;5012118;28;20211;-71
2022/04/03 07:09:03;;;;;;;1999.90;999.90;;;1.10;99.90;;;;;;5012144;28;20173;-71
2022/04/03 07:11:28;;;;;;;1999.90;999.90;;;1.10;99.90;;;;;;5012061;28;20176;-70
2022/04/03 07:13:54;;;;;;;1999.90;999.90;;;1.10;99.90;;;;;;5011993;28;20576;-71
2022/04/03 07:16:19;;;;;;;1999.90;999.90;;;1.20;99.90;;;;;;5011715;28;20192;-71
2022/04/03 07:18:45;;;;;;;1999.90;999.90;;;1.30;99.90;;;;;;5012001;28;20257;-71
2022/04/03 07:21:11;;;;;;;1999.90;999.90;;;1.50;99.90;;;;;;5011971;28;20169;-70
2022/04/03 07:23:36;;;;;;;1999.90;999.90;;;1.60;99.90;;;;;;5011883;28;20235;-71
2022/04/03 07:26:02;;;;;;;1999.90;999.90;;;1.80;99.90;;;;;;5011611;28;20676;-71
2022/04/03 07:28:27;;;;;;;1999.90;999.90;;;1.80;99.90;;;;;;5011885;28;20172;-71
2022/04/03 07:30:53;;;;;;;1999.90;999.90;;;1.90;99.90;;;;;;5011934;28;20635;-70
2022/04/03 07:33:20;;;;;;;1999.90;999.90;;;2.00;99.90;;;;;;5011881;28;20161;-71
2022/04/03 07:35:47;;;;;;;1999.90;999.90;;;2.10;99.90;;;;;;5011538;28;20181;-71
2022/04/03 07:38:14;;;;;;;1999.90;999.90;;;2.10;99.90;;;;;;5011838;28;20173;-71
2022/04/03 07:40:40;;;;;;;1999.90;999.90;;;2.20;99.90;;;;;;5011905;28;20537;-71
2022/04/03 07:43:06;;;;;;;1999.90;999.90;;;2.40;99.90;;;;;;5011742;28;20207;-71
2022/04/03 07:45:32;;;;;;;1999.90;999.90;;;2.50;99.90;;;;;;5011461;28;20199;-71
2022/04/03 07:47:58;;;;;;;1999.90;999.90;;;2.50;99.90;;;;;;5011756;28;20170;-70
2022/04/03 07:50:25;;;;;;;1999.90;999.90;;;2.70;99.90;;;;;;5011708;28;20412;-71
2022/04/03 07:52:51;;;;;;;1999.90;999.90;;;2.80;99.90;;;;;;5011739;28;20533;-71
2022/04/03 07:55:18;;;;;;;1999.90;999.90;;;2.90;99.90;;;;;;5011242;28;20201;-71
2022/04/03 07:57:44;;;;;;;1999.90;999.90;;;3.00;99.90;;;;;;5013681;28;20696;-71
2022/04/03 08:00:12;;;;;;;1999.90;999.90;;;3.10;99.90;;;;;;5015271;28;20165;-70
2022/04/03 08:02:38;;;;;;;1999.90;999.90;;;3.30;99.90;;;;;;5015154;28;21006;-71
2022/04/03 08:05:05;;;;;;;1999.90;999.90;;;3.40;99.90;;;;;;5014761;28;20208;-71
2022/04/03 08:07:38;;;;;;;1999.90;999.90;;;3.40;99.90;;;;;;5015094;28;20200;-71
2022/04/03 08:10:09;;;;;;;1999.90;999.90;;;3.50;99.90;;;;;;5015038;28;20197;-71
2022/04/03 08:12:35;;;;;;;1999.90;999.90;;;3.50;99.90;;;;;;5015049;28;20165;-71
2022/04/03 08:15:04;;;;;;;1999.90;999.90;;;3.50;99.90;;;;;;5014689;28;20741;-71
2022/04/03 08:17:30;;;;;;;1999.90;999.90;;;3.60;99.90;;;;;;5014896;28;20521;-71
2022/04/03 08:19:55;;;;;;;1999.90;999.90;;;3.60;99.90;;;;;;5014921;28;20192;-71
2022/04/03 08:22:21;;;;;;;1999.90;999.90;;;3.60;99.90;;;;;;5014900;28;20439;-71
2022/04/03 08:24:48;;;;;;;1999.90;999.90;;;3.80;99.90;;;;;;5014455;28;20220;-71
2022/04/03 08:27:14;;;;;;;1999.90;999.90;;;3.90;99.90;;;;;;5014743;28;20212;-71
2022/04/03 08:29:40;;;;;;;1999.90;999.90;;;3.90;99.90;;;;;;5014765;28;20165;-71
2022/04/03 08:32:06;;;;;;;1999.90;999.90;;;3.80;99.90;;;;;;5013575;28;20207;-69
2022/04/03 08:34:32;;;;;;;1999.90;999.90;;;3.70;99.90;;;;;;5012979;28;20174;-70
2022/04/03 08:36:57;;;;;;;1999.90;999.90;;;3.70;99.90;;;;;;5010386;28;20184;-70
2022/04/03 08:39:23;;;;;;;1999.90;999.90;;;3.70;99.90;;;;;;5013408;28;20181;-70
2022/04/03 08:41:49;;;;;;;1999.90;999.90;;;4.00;99.90;;;;;;5013691;28;20169;-70
2022/04/03 08:44:15;;;;;;;1999.90;999.90;;;4.10;99.90;;;;;;5012860;28;20204;-70
2022/04/03 08:46:43;;;;;;;1999.90;999.90;;;4.00;99.90;;;;;;5013895;28;20669;-71
2022/04/03 08:49:09;;;;;;;1999.90;999.90;;;4.00;99.90;;;;;;5013383;28;20165;-70
2022/04/03 08:51:39;;;;;;;1999.90;999.90;;;4.20;99.90;;;;;;5013614;28;20745;-70
2022/04/03 08:54:05;;;;;;;1999.90;999.90;;;4.30;99.90;;;;;;5013778;28;20780;-71
2022/04/03 08:56:31;;;;;;;1999.90;999.90;;;4.30;99.90;;;;;;5013556;28;20218;-71
2022/04/03 08:58:57;;;;;;;1999.90;999.90;;;4.20;99.90;;;;;;5013460;28;20248;-73
2022/04/03 09:01:24;;;;;;;1999.90;999.90;;;4.40;99.90;;;;;;5013489;28;20173;-73
2022/04/03 09:03:50;;;;;;;1999.90;999.90;;;4.40;99.90;;;;;;5013567;28;20203;-71
2022/04/03 09:06:18;;;;;;;1999.90;999.90;;;4.40;99.90;;;;;;5013290;28;20181;-71
2022/04/03 09:08:44;;;;;;;1999.90;999.90;;;4.60;99.90;;;;;;5011701;28;20173;-70
2022/04/03 09:11:11;;;;;;;1999.90;999.90;;;4.80;99.90;;;;;;5013280;28;20400;-70
2022/04/03 09:13:38;;;;;;;1999.90;999.90;;;5.00;99.90;;;;;;5013503;28;20773;-70
2022/04/03 09:16:05;;;;;;;1999.90;999.90;;;5.20;99.90;;;;;;5012615;28;20452;-70
2022/04/03 09:18:43;;;;;;;1999.90;999.90;;;5.20;99.90;;;;;;5013332;28;20818;-70
2022/04/03 09:21:35;;;;;;;1999.90;999.90;;;5.50;99.90;;;;;;5013167;28;20921;-70
2022/04/03 09:24:06;;;;;;;1999.90;999.90;;;5.60;99.90;;;;;;5010943;28;20569;-69
2022/04/03 09:26:33;;;;;;;1999.90;999.90;;;5.70;99.90;;;;;;5013145;28;20432;-70
2022/04/03 09:29:18;;;;;;;1999.90;999.90;;;5.70;99.90;;;;;;5012654;28;20961;-69
2022/04/03 09:31:47;;;;;;;1999.90;999.90;;;5.80;99.90;;;;;;5013257;28;20757;-71
2022/04/03 09:34:20;;;;;;;1999.90;999.90;;;5.80;99.90;;;;;;5012899;28;20204;-70
2022/04/03 09:37:00;;;;;;;1999.90;999.90;;;5.80;99.90;;;;;;5012792;28;20440;-70
2022/04/03 09:39:28;;;;;;;1999.90;999.90;;;5.80;99.90;;;;;;5013003;28;20925;-69
2022/04/03 09:42:04;;;;;;;1999.90;999.90;;;5.60;99.90;;;;;;5012991;28;20500;-70
2022/04/03 09:44:40;;;;;;;1999.90;999.90;;;5.40;99.90;;;;;;5012175;28;20447;-70
2022/04/03 09:47:27;;;;;;;1999.90;999.90;;;5.30;99.90;;;;;;5012999;28;20815;-70
2022/04/03 09:49:57;;;;;;;1999.90;999.90;;;5.10;99.90;;;;;;5012334;28;20200;-70
2022/04/03 09:52:33;;;;;;;1999.90;999.90;;;4.90;99.90;;;;;;5012507;28;20420;-70
2022/04/03 09:55:00;;;;;;;1999.90;999.90;;;4.80;99.90;;;;;;5012320;28;20447;-70
2022/04/03 09:57:25;;;;;;;1999.90;999.90;;;4.80;99.90;;;;;;5050744;23;20494;-69
2022/04/03 09:59:55;;;;;;;1999.90;999.90;;;4.90;99.90;;;;;;5012953;28;20173;-70
2022/04/03 10:02:22;;;;;;;1999.90;999.90;;;5.00;99.90;;;;;;5012427;28;20168;-69
2022/04/03 10:04:53;;;;;;;1999.90;999.90;;;5.20;99.90;;;;;;5012232;28;20870;-69
2022/04/03 10:07:20;;;;;;;1999.90;999.90;;;5.40;99.90;;;;;;5012634;28;20435;-70
2022/04/03 10:09:48;;;;;;;1999.90;999.90;;;5.80;99.90;;;;;;5012266;28;20400;-69
2022/04/03 10:12:16;;;;;;;1999.90;999.90;;;6.20;99.90;;;;;;5012587;28;20786;-69
2022/04/03 10:14:44;;;;;;;1999.90;999.90;;;6.40;99.90;;;;;;5012262;28;20450;-70
2022/04/03 10:17:11;;;;;;;1999.90;999.90;;;6.50;99.90;;;;;;5012448;28;20428;-70
2022/04/03 10:19:37;;;;;;;1999.90;999.90;;;6.90;99.90;;;;;;5012364;28;20921;-70
2022/04/03 10:22:05;;;;;;;1999.90;999.90;;;7.30;99.90;;;;;;5012867;28;20447;-70
2022/04/03 10:24:35;;;;;;;1999.90;999.90;;;7.50;99.90;;;;;;5012510;28;20566;-70
2022/04/03 10:27:04;;;;;;;1999.90;999.90;;;7.40;99.90;;;;;;5012673;28;20804;-70
2022/04/03 10:29:36;;;;;;;1999.90;999.90;;;7.10;99.90;;;;;;5011666;28;21148;-70
2022/04/03 10:32:05;;;;;;;1999.90;999.90;;;7.30;99.90;;;;;;5012573;28;20804;-69
2022/04/03 10:34:43;;;;;;;1999.90;999.90;;;7.80;99.90;;;;;;5012477;28;20416;-70
2022/04/03 10:37:27;;;;;;;1999.90;999.90;;;8.20;99.90;;;;;;5012491;28;20534;-70
2022/04/03 10:39:54;;;;;;;1999.90;999.90;;;8.50;99.90;;;;;;5013238;28;20419;-70
2022/04/03 10:42:25;;;;;;;1999.90;999.90;;;8.20;98.80;;;;;;5013177;28;20415;-70
2022/04/03 10:45:12;;;;;;;1999.90;999.90;;;8.00;99.90;;;;;;5012234;28;20467;-70
2022/04/03 10:47:42;;;;;;;1999.90;999.90;;;7.90;99.50;;;;;;5012093;28;20473;-69
2022/04/03 10:50:09;;;;;;;1999.90;999.90;;;7.30;99.40;;;;;;5011486;28;20407;-70
2022/04/03 10:52:38;;;;;;;1999.90;999.90;;;6.90;99.50;;;;;;5011924;28;20396;-70
2022/04/03 10:55:27;;;;;;;1999.90;999.90;;;6.60;98.20;;;;;;5011512;28;20463;-70
2022/04/03 10:58:03;;;;;;;1999.90;999.90;;;6.50;98.30;;;;;;5011232;28;20869;-70
2022/04/03 11:00:39;;;;;;;1999.90;999.90;;;6.60;95.90;;;;;;5011951;28;20392;-69
2022/04/03 11:03:14;;;;;;;1999.90;999.90;;;6.80;97.60;;;;;;5012317;28;20400;-70
2022/04/03 11:05:40;;;;;;;1999.90;999.90;;;7.40;97.70;;;;;;5011620;28;20434;-70
2022/04/03 11:08:05;;;;;;;1999.90;999.90;;;7.90;99.90;;;;;;5012197;28;20496;-70
2022/04/03 11:10:57;;;;;;;1999.90;999.90;;;8.40;99.90;;;;;;5012183;28;20482;-70
2022/04/03 11:13:32;;;;;;;1999.90;999.90;;;8.70;96.30;;;;;;5012219;28;20177;-70
2022/04/03 11:16:11;;;;;;;1999.90;999.90;;;8.10;92.40;;;;;;5011624;28;20442;-70
2022/04/03 11:18:42;;;;;;;1999.90;999.90;;;7.90;97.00;;;;;;5011954;28;20399;-70
2022/04/03 11:21:22;;;;;;;1999.90;999.90;;;7.60;91.80;;;;;;5011328;28;20411;-68
2022/04/03 11:24:25;;;;;;;1999.90;999.90;;;7.80;94.30;;;;;;5011406;28;20444;-69
2022/04/03 11:26:51;;;;;;;1999.90;999.90;;;8.00;98.10;;;;;;5008320;28;20489;-69
2022/04/03 11:29:18;;;;;;;1999.90;999.90;;;8.10;95.50;;;;;;5010620;28;20483;-69
2022/04/03 11:31:45;;;;;;;1999.90;999.90;;;7.90;92.60;;;;;;5011536;28;20400;-69
2022/04/03 11:34:12;;;;;;;1999.90;999.90;;;8.10;95.60;;;;;;5015229;28;20505;-69
2022/04/03 11:36:38;;;;;;;1999.90;999.90;;;8.20;91.60;;;;;;5014850;28;20957;-69
2022/04/03 11:39:08;;;;;;;1999.90;999.90;;;8.10;91.30;;;;;;5015150;28;20505;-69
2022/04/03 11:41:35;;;;;;;1999.90;999.90;;;8.00;91.90;;;;;;5015173;28;20412;-69
2022/04/03 11:44:12;;;;;;;1999.90;999.90;;;8.40;93.50;;;;;;5014516;28;20459;-69
2022/04/03 11:46:42;;;;;;;1999.90;999.90;;;8.80;91.20;;;;;;5015199;28;20424;-68
2022/04/03 11:49:12;;;;;;;1999.90;999.90;;;9.50;95.40;;;;;;5015132;28;20769;-68
2022/04/03 11:51:38;;;;;;;1999.90;999.90;;;10.00;91.20;;;;;;5015952;28;20415;-70
2022/04/03 11:54:04;;;;;;;1999.90;999.90;;;10.30;88.70;;;;;;5015340;28;20409;-69
2022/04/03 11:56:36;;;;;;;1999.90;999.90;;;10.30;80.10;;;;;;5016063;28;20535;-68
2022/04/03 11:59:04;;;;;;;1999.90;999.90;;;9.50;85.40;;;;;;5015117;28;20181;-70
2022/04/03 12:01:35;;;;;;;1999.90;999.90;;;8.90;78.60;;;;;;5015376;28;20745;-69
2022/04/03 12:04:08;;;;;;;1999.90;999.90;;;9.10;85.20;;;;;;5015022;28;20458;-68
2022/04/03 12:06:35;;;;;;;1999.90;999.90;;;10.00;85.40;;;;;;5015657;28;20458;-69
2022/04/03 12:09:08;;;;;;;1999.90;999.90;;;10.40;80.70;;;;;;5015429;28;20411;-69